Annette, Alaska
Current Conditions -  °F | °C
As of 10:53 PM on Sunday 19 Oct 2014 (Local Time) from PANT Reporting Station
Overcast Overcast  
Wind Chill: 52°   Ceiling: 2200
Heat Index: 52°   Visibility: 10mi
Dew Point: 48°   Wind: 16mph
Humidity: 86%   Direction: 120°ESE
Pressure: 29.3"   Gusts: 22mph
Location:  55.05°N, 131.6°W
Report Text: PANT 200753Z AUTO 12014G19KT 10SM OVC022 11/09 A2930 RMK AO2 SLP921 T01110089 TSNO
Loading
Personal Weather Stations






























Interactive Weather Map New forecast layout! Learn more

10-Day Weather Forecast

Advertisements
Track Severe Weather on mobile